Time;durP1;ratioP1;P1;durP2;ratioP2;P2;SDS_P1;SDS_P2;PMS_P1;PMS_P2;Temp;Humidity;BMP_temperature;BMP_pressure;BME280_temperature;BME280_humidity;BME280_pressure;Samples;Min_cycle;Max_cycle;Signal;HPM_P1;HPM_P2
2021/04/23 00:00:44;;;;;;;9.50;2.95;;;;;;;11.91;53.20;94037.47;5001209;28;20033;-71
2021/04/23 00:03:40;;;;;;;6.18;2.92;;;;;;;11.87;53.16;94046.41;5001082;28;20084;-71
2021/04/23 00:06:13;;;;;;;4.97;2.70;;;;;;;11.87;53.50;94041.06;5007187;28;20160;-71
2021/04/23 00:08:41;;;;;;;8.27;3.10;;;;;;;11.91;53.19;94044.69;5009759;28;20149;-71
2021/04/23 00:11:08;;;;;;;6.97;3.08;;;;;;;11.93;53.06;94045.16;4997779;28;20041;-71
2021/04/23 00:13:34;;;;;;;7.80;3.40;;;;;;;11.85;53.21;94044.81;4998464;28;20022;-71
2021/04/23 00:16:00;;;;;;;5.93;2.67;;;;;;;11.88;53.00;94047.97;5005552;28;20042;-70
2021/04/23 00:18:25;;;;;;;4.82;2.40;;;;;;;11.69;53.81;94057.09;5005768;28;20076;-70
2021/04/23 00:20:52;;;;;;;6.05;3.13;;;;;;;11.73;53.65;94055.34;5014151;28;20057;-71
2021/04/23 00:23:17;;;;;;;10.68;3.70;;;;;;;11.78;53.42;94047.16;5000488;28;20038;-70
2021/04/23 00:25:43;;;;;;;6.75;2.90;;;;;;;11.76;53.27;94056.59;5008185;28;20085;-70
2021/04/23 00:28:12;;;;;;;8.48;3.05;;;;;;;11.76;53.30;94057.38;5010395;28;20025;-71
2021/04/23 00:30:43;;;;;;;4.78;2.88;;;;;;;11.75;53.87;94055.03;5005875;28;20501;-71
2021/04/23 00:33:09;;;;;;;6.65;3.20;;;;;;;11.71;54.08;94057.56;4998240;28;20045;-71
2021/04/23 00:35:38;;;;;;;5.57;3.00;;;;;;;11.69;54.12;94046.41;5002408;28;20076;-71
2021/04/23 00:38:07;;;;;;;5.57;2.38;;;;;;;11.69;54.48;94049.06;5001895;28;20101;-71
2021/04/23 00:40:39;;;;;;;5.93;3.00;;;;;;;11.70;54.77;94039.94;5001090;28;20466;-71
2021/04/23 00:43:06;;;;;;;6.13;3.50;;;;;;;11.69;54.64;94043.72;4999118;28;20068;-71
2021/04/23 00:45:32;;;;;;;7.25;3.03;;;;;;;11.68;54.71;94042.16;5006050;28;20034;-70
2021/04/23 00:48:00;;;;;;;10.40;3.20;;;;;;;11.71;54.95;94049.53;5005723;28;20029;-71
2021/04/23 00:50:40;;;;;;;5.25;3.22;;;;;;;11.68;55.11;94044.81;5009821;28;20057;-71
2021/04/23 00:53:07;;;;;;;10.98;3.78;;;;;;;11.69;55.01;94049.06;4992121;28;20041;-71
2021/04/23 00:55:33;;;;;;;7.10;3.65;;;;;;;11.71;54.96;94062.13;5001825;28;20048;-71
2021/04/23 00:57:59;;;;;;;6.03;3.58;;;;;;;11.68;55.53;94058.16;5012913;28;20493;-70
2021/04/23 01:00:25;;;;;;;6.28;3.30;;;;;;;11.69;55.38;94058.97;5001948;28;20102;-70
2021/04/23 01:02:51;;;;;;;7.20;3.85;;;;;;;11.61;55.67;94060.53;4993426;28;20521;-70
2021/04/23 01:05:19;;;;;;;8.68;3.20;;;;;;;11.59;56.05;94058.19;4998586;28;20022;-70
2021/04/23 01:07:48;;;;;;;7.28;3.10;;;;;;;11.56;56.77;94056.16;5001553;28;20026;-70
2021/04/23 01:10:14;;;;;;;8.50;3.60;;;;;;;11.63;57.61;94063.69;4999500;28;20470;-69
2021/04/23 01:12:40;;;;;;;6.43;3.83;;;;;;;11.59;58.06;94057.41;5007373;28;20018;-69
2021/04/23 01:15:07;;;;;;;10.15;3.70;;;;;;;11.60;57.94;94058.94;5012632;28;20498;-70
2021/04/23 01:17:32;;;;;;;12.93;3.85;;;;;;;11.59;58.40;94057.41;4994441;28;20026;-70
2021/04/23 01:19:58;;;;;;;5.45;3.72;;;;;;;11.56;59.43;94068.69;4995516;28;20029;-70
2021/04/23 01:22:23;;;;;;;7.57;3.10;;;;;;;11.55;59.11;94061.78;5010300;28;20066;-69
2021/04/23 01:24:48;;;;;;;5.35;3.25;;;;;;;11.51;59.66;94066.97;5013040;28;20026;-70
2021/04/23 01:27:14;;;;;;;12.48;3.63;;;;;;;11.48;60.12;94062.28;5005036;28;20038;-70
2021/04/23 01:29:39;;;;;;;7.15;3.72;;;;;;;11.47;60.83;94082.03;5011440;28;20508;-70
2021/04/23 01:32:05;;;;;;;9.35;3.83;;;;;;;11.50;60.96;94077.94;5011302;28;20024;-70
2021/04/23 01:34:36;;;;;;;21.52;4.30;;;;;;;11.51;61.76;94076.88;5010249;28;20045;-70
2021/04/23 01:37:04;;;;;;;7.17;3.90;;;;;;;11.48;62.35;94083.63;4996562;28;20029;-70
2021/04/23 01:39:35;;;;;;;9.48;4.25;;;;;;;11.39;62.58;94086.25;5012377;28;20041;-71
2021/04/23 01:42:01;;;;;;;6.20;4.25;;;;;;;11.36;62.35;94086.91;5012933;28;20026;-70
2021/04/23 01:44:28;;;;;;;7.88;4.32;;;;;;;11.33;62.17;94081.41;5012480;28;20034;-71
2021/04/23 01:46:54;;;;;;;7.82;4.38;;;;;;;11.26;62.85;94081.88;5012216;28;20033;-70
2021/04/23 01:49:22;;;;;;;5.80;4.30;;;;;;;11.27;62.96;94087.97;5006630;28;20049;-70
2021/04/23 01:51:50;;;;;;;9.85;4.28;;;;;;;11.24;62.94;94089.41;5010679;28;20025;-70
2021/04/23 01:54:17;;;;;;;7.93;4.20;;;;;;;11.22;62.72;94088.91;4995459;28;20033;-70
2021/04/23 01:56:45;;;;;;;9.20;4.90;;;;;;;11.13;63.00;94088.88;4992445;28;20034;-71
2021/04/23 01:59:11;;;;;;;7.05;4.38;;;;;;;11.13;63.11;94093.44;4991136;28;20418;-71
2021/04/23 02:01:37;;;;;;;10.05;4.82;;;;;;;11.08;63.99;94091.69;4990728;28;20026;-71
2021/04/23 02:04:06;;;;;;;7.82;4.38;;;;;;;11.15;64.36;94101.91;4997229;28;20026;-70
2021/04/23 02:06:31;;;;;;;9.70;4.72;;;;;;;11.13;64.60;94082.75;5010503;28;20080;-71
2021/04/23 02:08:57;;;;;;;7.15;4.35;;;;;;;11.10;64.92;94091.41;4994127;28;20058;-71
2021/04/23 02:11:23;;;;;;;8.98;4.70;;;;;;;11.09;64.12;94100.47;4990824;28;20019;-70
2021/04/23 02:13:51;;;;;;;5.20;3.60;;;;;;;11.06;63.72;94095.78;5003875;28;20049;-70
2021/04/23 02:16:19;;;;;;;9.25;4.15;;;;;;;11.04;63.41;94096.88;5011430;28;20057;-70
2021/04/23 02:18:46;;;;;;;9.32;4.50;;;;;;;11.05;63.63;94108.31;5000318;28;20026;-71
2021/04/23 02:21:13;;;;;;;9.30;4.15;;;;;;;11.07;63.34;94095.44;4990728;28;20030;-71
2021/04/23 02:23:42;;;;;;;7.85;4.50;;;;;;;11.08;63.37;94096.25;5003023;28;20576;-71
2021/04/23 02:26:08;;;;;;;6.05;4.13;;;;;;;11.05;63.81;94092.31;4991522;28;20049;-70
2021/04/23 02:28:34;;;;;;;8.10;4.82;;;;;;;11.06;63.80;94096.56;4990427;28;20478;-71
2021/04/23 02:31:04;;;;;;;8.15;4.40;;;;;;;11.02;64.78;94090.28;5002411;28;20041;-71
2021/04/23 02:33:30;;;;;;;9.13;4.80;;;;;;;11.01;65.00;94100.16;4990097;28;20053;-71
2021/04/23 02:35:57;;;;;;;12.27;4.60;;;;;;;11.01;64.95;94097.50;4990158;28;20030;-71
2021/04/23 02:38:24;;;;;;;7.43;4.63;;;;;;;10.99;65.55;94093.53;4996027;28;20052;-71
2021/04/23 02:40:50;;;;;;;9.93;4.88;;;;;;;10.94;65.36;94099.81;5010046;28;20030;-71
2021/04/23 02:43:20;;;;;;;13.32;4.22;;;;;;;10.94;65.12;94101.69;5011193;28;20041;-71
2021/04/23 02:45:48;;;;;;;8.00;4.22;;;;;;;10.88;65.10;94109.06;5011062;28;20040;-71
2021/04/23 02:48:15;;;;;;;12.77;4.32;;;;;;;10.93;65.41;94108.94;5010804;28;20037;-71
2021/04/23 02:50:48;;;;;;;6.10;4.00;;;;;;;10.94;66.57;94118.47;5009055;28;20113;-71
2021/04/23 02:53:14;;;;;;;11.15;5.53;;;;;;;10.90;66.53;94112.19;4993889;28;20112;-70
2021/04/23 02:55:40;;;;;;;10.75;5.65;;;;;;;10.81;66.22;94108.72;4996989;28;20104;-71
2021/04/23 02:58:08;;;;;;;13.13;6.47;;;;;;;10.81;66.38;94116.72;4990856;28;20490;-71
2021/04/23 03:00:36;;;;;;;10.25;6.28;;;;;;;10.79;66.82;94126.91;5004877;28;20442;-72
2021/04/23 03:03:04;;;;;;;12.55;8.00;;;;;;;10.76;66.43;94127.50;4998286;28;20481;-72
2021/04/23 03:05:31;;;;;;;11.13;7.82;;;;;;;10.74;66.08;94127.81;5006826;28;20026;-72
2021/04/23 03:07:58;;;;;;;13.32;7.90;;;;;;;10.75;66.01;94126.72;5005773;28;20481;-72
2021/04/23 03:10:26;;;;;;;14.40;7.85;;;;;;;10.75;65.95;94132.06;5010484;28;20036;-72
2021/04/23 03:12:53;;;;;;;15.75;8.18;;;;;;;10.74;66.37;94133.16;5010582;28;20468;-72
2021/04/23 03:15:24;;;;;;;15.23;8.35;;;;;;;10.70;66.57;94134.84;5008960;28;20064;-71
2021/04/23 03:17:53;;;;;;;10.50;6.72;;;;;;;10.73;66.56;94133.47;5010566;28;20034;-71
2021/04/23 03:20:21;;;;;;;11.95;6.97;;;;;;;10.70;66.68;94129.50;5010758;28;20140;-71
2021/04/23 03:22:48;;;;;;;10.65;7.20;;;;;;;10.72;66.84;94135.31;5008976;28;20037;-70
2021/04/23 03:25:14;;;;;;;10.63;7.22;;;;;;;10.77;67.36;94137.09;5010244;28;20041;-71
2021/04/23 03:27:41;;;;;;;11.75;7.15;;;;;;;10.79;67.56;94145.56;5006036;28;20022;-71
2021/04/23 03:30:15;;;;;;;13.18;7.43;;;;;;;10.78;67.66;94147.44;4997642;28;20061;-70
2021/04/23 03:32:41;;;;;;;9.48;6.05;;;;;;;10.78;67.88;94136.00;4989314;28;20087;-71
2021/04/23 03:35:08;;;;;;;9.68;5.97;;;;;;;10.74;67.71;94145.69;4990784;28;20041;-72
2021/04/23 03:37:33;;;;;;;10.98;5.60;;;;;;;10.74;67.28;94141.13;4989058;28;20104;-71
2021/04/23 03:39:59;;;;;;;10.50;5.47;;;;;;;10.75;67.73;94148.06;4993477;28;20084;-70
2021/04/23 03:42:24;;;;;;;8.85;6.68;;;;;;;10.76;68.15;94154.16;5008855;28;20044;-70
2021/04/23 03:44:50;;;;;;;8.95;5.75;;;;;;;10.71;67.93;94162.31;4990937;28;20526;-71
2021/04/23 03:47:15;;;;;;;13.20;6.25;;;;;;;10.72;67.95;94153.22;4995848;28;20522;-73
2021/04/23 03:49:41;;;;;;;12.18;6.90;;;;;;;10.70;67.66;94163.41;4995871;28;20027;-73
2021/04/23 03:52:06;;;;;;;10.35;6.82;;;;;;;10.68;67.69;94170.91;4990475;28;20161;-71
2021/04/23 03:54:31;;;;;;;14.65;6.60;;;;;;;10.63;67.72;94174.50;5000562;28;20429;-71
2021/04/23 03:56:57;;;;;;;9.27;6.13;;;;;;;10.67;68.23;94180.00;4999126;28;20084;-71
2021/04/23 03:59:24;;;;;;;9.90;6.47;;;;;;;10.67;68.18;94172.78;4998768;28;20148;-72
2021/04/23 04:01:50;;;;;;;10.75;6.88;;;;;;;10.62;68.33;94168.38;5001957;28;20030;-70
2021/04/23 04:04:16;;;;;;;13.00;7.47;;;;;;;10.58;68.34;94170.09;5009325;28;20540;-69
2021/04/23 04:06:41;;;;;;;14.27;7.32;;;;;;;10.60;68.26;94167.91;4989673;28;20184;-70
2021/04/23 04:09:07;;;;;;;13.15;8.65;;;;;;;10.62;68.23;94187.03;5002042;28;20040;-70
2021/04/23 04:11:32;;;;;;;13.60;8.38;;;;;;;10.67;68.48;94188.00;5008030;28;20408;-70
2021/04/23 04:13:58;;;;;;;13.32;8.65;;;;;;;10.68;68.71;94185.03;5009398;28;20444;-70
2021/04/23 04:16:23;;;;;;;14.70;8.38;;;;;;;10.67;68.84;94178.13;4991173;28;20042;-69
2021/04/23 04:18:49;;;;;;;17.10;9.82;;;;;;;10.67;68.65;94183.47;4997835;28;20021;-71
2021/04/23 04:21:14;;;;;;;14.15;9.15;;;;;;;10.62;69.05;94186.25;5007608;28;20109;-68
2021/04/23 04:23:39;;;;;;;17.05;10.85;;;;;;;10.70;69.23;94198.06;4994948;28;20026;-69
2021/04/23 04:26:05;;;;;;;22.02;9.75;;;;;;;10.71;69.17;94199.63;4990098;28;20113;-70
2021/04/23 04:28:31;;;;;;;17.58;10.65;;;;;;;10.66;69.53;94189.09;5008669;28;20216;-69
2021/04/23 04:30:57;;;;;;;23.73;11.68;;;;;;;10.69;69.67;94189.28;5001172;28;20495;-69
2021/04/23 04:33:23;;;;;;;22.40;11.85;;;;;;;10.72;69.52;94185.19;4986776;28;20621;-69
2021/04/23 04:35:49;;;;;;;20.35;12.18;;;;;;;10.72;69.24;94188.66;4987163;28;20127;-69
2021/04/23 04:38:15;;;;;;;18.60;11.48;;;;;;;10.69;69.09;94197.28;4986880;28;20030;-69
2021/04/23 04:40:42;;;;;;;19.40;12.57;;;;;;;10.71;69.25;94191.63;4988500;28;20026;-69
2021/04/23 04:43:10;;;;;;;20.50;12.15;;;;;;;10.71;69.57;94200.41;4988185;28;20387;-69
2021/04/23 04:45:37;;;;;;;21.33;11.93;;;;;;;10.69;69.86;94201.81;4989757;28;20030;-69
2021/04/23 04:48:05;;;;;;;20.35;11.75;;;;;;;10.69;70.04;94201.81;4990011;28;20025;-69
2021/04/23 04:50:35;;;;;;;21.33;10.40;;;;;;;10.59;70.18;94198.31;4989882;28;20058;-69
2021/04/23 04:53:04;;;;;;;17.93;9.80;;;;;;;10.64;70.07;94203.53;4989008;28;20042;-69
2021/04/23 04:55:33;;;;;;;13.60;8.70;;;;;;;10.71;70.10;94212.97;4990998;28;20470;-69
2021/04/23 04:58:00;;;;;;;12.82;7.35;;;;;;;10.68;70.13;94213.56;4992143;28;20065;-69
2021/04/23 05:00:28;;;;;;;11.57;6.75;;;;;;;10.67;71.18;94220.00;4993607;28;20037;-70
2021/04/23 05:02:54;;;;;;;12.27;5.97;;;;;;;10.63;71.18;94214.47;4992255;28;20478;-69
2021/04/23 05:05:20;;;;;;;10.73;5.97;;;;;;;10.58;71.60;94225.25;4992120;28;20030;-69
2021/04/23 05:07:46;;;;;;;9.77;6.18;;;;;;;10.54;71.50;94211.78;4991911;28;20423;-69
2021/04/23 05:10:13;;;;;;;15.23;7.50;;;;;;;10.45;71.98;94208.25;4992287;28;20031;-69
2021/04/23 05:12:38;;;;;;;16.63;6.93;;;;;;;10.46;72.27;94217.81;4992071;28;20489;-69
2021/04/23 05:15:06;;;;;;;20.92;9.40;;;;;;;10.48;72.57;94215.63;4993126;28;20054;-69
2021/04/23 05:17:32;;;;;;;17.58;10.48;;;;;;;10.52;72.08;94218.47;4993276;28;20525;-69
2021/04/23 05:19:57;;;;;;;15.23;9.38;;;;;;;10.48;71.23;94222.84;4991769;28;20023;-69
2021/04/23 05:22:23;;;;;;;17.60;11.07;;;;;;;10.39;72.96;94241.44;4991879;28;20572;-68
2021/04/23 05:24:48;;;;;;;13.15;6.97;;;;;;;10.33;73.29;94237.31;4992915;28;20049;-68
2021/04/23 05:27:14;;;;;;;8.07;5.72;;;;;;;10.27;72.85;94227.81;4991900;28;20493;-68
2021/04/23 05:29:39;;;;;;;11.95;6.65;;;;;;;10.26;73.57;94232.38;4993182;28;20030;-68
2021/04/23 05:32:05;;;;;;;9.85;5.40;;;;;;;10.25;73.43;94236.91;4992883;28;20391;-69
2021/04/23 05:34:31;;;;;;;9.20;5.53;;;;;;;10.27;72.83;94233.16;4992975;28;20031;-69
2021/04/23 05:36:57;;;;;;;10.70;6.13;;;;;;;10.29;73.31;94238.97;4992745;28;20033;-69
2021/04/23 05:39:23;;;;;;;10.57;5.68;;;;;;;10.27;73.10;94249.91;4992646;28;20026;-69
2021/04/23 05:41:48;;;;;;;8.18;5.30;;;;;;;10.24;73.23;94248.66;5012363;28;20037;-69
2021/04/23 05:44:14;;;;;;;10.55;5.03;;;;;;;10.23;73.09;94241.75;5012203;28;20030;-68
2021/04/23 05:46:39;;;;;;;11.05;5.53;;;;;;;10.25;73.09;94252.88;5012317;28;20477;-68
2021/04/23 05:49:06;;;;;;;11.32;4.38;;;;;;;10.23;72.47;94252.41;5011853;28;20098;-68
2021/04/23 05:51:32;;;;;;;12.65;6.03;;;;;;;10.18;72.56;94265.06;5012272;28;20022;-70
2021/04/23 05:53:57;;;;;;;6.00;4.30;;;;;;;10.15;73.34;94258.44;5011012;28;20151;-68
2021/04/23 05:56:23;;;;;;;11.20;5.82;;;;;;;10.17;73.71;94260.81;5012058;28;20425;-69
2021/04/23 05:58:49;;;;;;;9.68;5.30;;;;;;;10.08;72.84;94255.41;5012020;28;20025;-69
2021/04/23 06:01:15;;;;;;;8.02;5.03;;;;;;;10.11;72.84;94249.47;5011646;28;20022;-69
2021/04/23 06:03:41;;;;;;;9.95;5.10;;;;;;;10.12;73.97;94253.72;5010505;28;20076;-69
2021/04/23 06:06:06;;;;;;;7.32;5.15;;;;;;;10.24;73.46;94267.31;4994432;28;20026;-70
2021/04/23 06:08:32;;;;;;;7.35;4.88;;;;;;;10.31;71.73;94258.13;4991402;28;20109;-69
2021/04/23 06:10:57;;;;;;;9.00;5.80;;;;;;;10.33;71.75;94262.06;4992224;28;20033;-69
2021/04/23 06:13:22;;;;;;;8.60;5.68;;;;;;;10.32;71.83;94271.16;4991863;28;20394;-69
2021/04/23 06:15:48;;;;;;;15.52;5.20;;;;;;;10.45;71.80;94258.88;4990378;28;20096;-69
2021/04/23 06:18:14;;;;;;;13.43;6.22;;;;;;;10.45;71.29;94261.53;4990539;28;20035;-69
2021/04/23 06:20:42;;;;;;;15.43;5.55;;;;;;;10.50;71.23;94258.78;4990781;28;20433;-69
2021/04/23 06:23:08;;;;;;;13.82;6.10;;;;;;;10.56;71.49;94265.56;4991949;28;20034;-69
2021/04/23 06:25:34;;;;;;;13.35;7.07;;;;;;;10.61;71.31;94262.75;4991798;28;20026;-69
2021/04/23 06:28:01;;;;;;;10.98;6.13;;;;;;;10.71;71.21;94276.94;4989892;28;20025;-69
2021/04/23 06:30:30;;;;;;;8.40;4.88;;;;;;;10.77;70.93;94273.06;4991019;28;20022;-69
2021/04/23 06:32:57;;;;;;;14.43;5.80;;;;;;;10.79;70.80;94266.34;4996073;28;20026;-69
2021/04/23 06:35:29;;;;;;;9.60;5.97;;;;;;;10.84;70.33;94268.09;5010373;28;20036;-69
2021/04/23 06:37:56;;;;;;;9.68;5.32;;;;;;;10.87;70.52;94264.81;5010547;28;20037;-69
2021/04/23 06:40:21;;;;;;;15.95;5.60;;;;;;;10.83;71.01;94266.53;5008918;28;20095;-69
2021/04/23 06:42:47;;;;;;;10.85;6.05;;;;;;;10.92;71.11;94269.25;5002360;28;20069;-69
2021/04/23 06:45:15;;;;;;;11.63;6.57;;;;;;;10.98;70.21;94268.00;5010176;28;20045;-69
2021/04/23 06:47:42;;;;;;;11.70;7.18;;;;;;;11.02;70.31;94271.66;5010200;28;20018;-70
2021/04/23 06:50:09;;;;;;;20.77;7.78;;;;;;;10.94;70.51;94267.84;5010173;28;20409;-69
2021/04/23 06:52:35;;;;;;;13.15;6.70;;;;;;;10.95;70.12;94271.28;5010286;28;20531;-69
2021/04/23 06:55:00;;;;;;;18.02;9.10;;;;;;;10.94;71.08;94267.84;5010156;28;20033;-69
2021/04/23 06:57:26;;;;;;;17.73;11.70;;;;;;;11.04;71.45;94278.25;5010156;28;20140;-69
2021/04/23 06:59:52;;;;;;;20.85;11.43;;;;;;;11.12;71.39;94278.63;5010230;28;20033;-69
2021/04/23 07:02:17;;;;;;;18.85;9.82;;;;;;;11.08;70.81;94277.66;5008954;28;20464;-69
2021/04/23 07:04:43;;;;;;;16.42;8.82;;;;;;;11.03;71.64;94284.69;5010112;28;20030;-70
2021/04/23 07:07:08;;;;;;;17.58;9.48;;;;;;;10.94;72.38;94283.84;5009907;28;20029;-69
2021/04/23 07:09:34;;;;;;;12.80;7.72;;;;;;;10.91;72.40;94279.13;5002682;28;20493;-69
2021/04/23 07:12:01;;;;;;;18.92;8.40;;;;;;;10.94;72.46;94286.50;4988879;28;20026;-70
2021/04/23 07:14:27;;;;;;;15.05;7.70;;;;;;;10.94;72.85;94275.84;4989717;28;20359;-70
2021/04/23 07:16:52;;;;;;;11.77;7.13;;;;;;;10.93;72.90;94287.59;4988917;28;20041;-69
2021/04/23 07:19:18;;;;;;;15.30;7.53;;;;;;;10.88;72.67;94282.38;4990017;28;20026;-69
2021/04/23 07:21:43;;;;;;;17.02;7.18;;;;;;;10.84;73.02;94284.88;4992153;28;20026;-69
2021/04/23 07:24:09;;;;;;;12.40;6.57;;;;;;;10.79;73.44;94281.56;5008044;28;20037;-69
2021/04/23 07:26:34;;;;;;;10.18;6.68;;;;;;;10.84;72.94;94289.41;5008388;28;20408;-69
2021/04/23 07:29:00;;;;;;;11.55;5.85;;;;;;;10.77;73.08;94291.72;5008233;28;20038;-70
2021/04/23 07:31:25;;;;;;;11.50;6.43;;;;;;;10.67;73.71;94289.31;5009459;28;20041;-69
2021/04/23 07:33:51;;;;;;;11.07;6.80;;;;;;;10.61;74.08;94299.31;5002265;28;20049;-69
2021/04/23 07:36:16;;;;;;;9.70;6.53;;;;;;;10.54;74.45;94297.06;4989758;28;20493;-69
2021/04/23 07:38:42;;;;;;;19.40;9.07;;;;;;;10.46;74.85;94299.63;4988383;28;20030;-69
2021/04/23 07:41:07;;;;;;;19.38;9.38;;;;;;;10.43;75.46;94304.47;4989883;28;20037;-70
2021/04/23 07:43:33;;;;;;;20.05;9.38;;;;;;;10.41;75.74;94305.88;4998099;28;20026;-69
2021/04/23 07:46:01;;;;;;;15.40;8.43;;;;;;;10.41;75.67;94308.53;4989676;28;20026;-69
2021/04/23 07:48:27;;;;;;;16.55;7.93;;;;;;;10.39;74.24;94314.16;4996341;28;20033;-69
2021/04/23 07:50:53;;;;;;;10.88;5.45;;;;;;;10.26;72.22;94312.31;5008001;28;20171;-69
2021/04/23 07:53:18;;;;;;;14.52;5.32;;;;;;;10.19;73.72;94315.34;5008180;28;20228;-69
2021/04/23 07:55:44;;;;;;;7.00;4.28;;;;;;;10.02;73.12;94312.53;5009106;28;20409;-69
2021/04/23 07:58:09;;;;;;;9.02;3.72;;;;;;;9.98;74.03;94314.22;5009207;28;20030;-69
2021/04/23 08:00:34;;;;;;;8.88;3.15;;;;;;;9.88;72.94;94314.41;5008931;28;20056;-70
2021/04/23 08:03:00;;;;;;;7.38;3.55;;;;;;;9.76;74.47;94314.91;5009303;28;20430;-69
2021/04/23 08:05:25;;;;;;;6.60;2.70;;;;;;;9.72;73.77;94319.25;5007614;28;20022;-70
2021/04/23 08:07:51;;;;;;;6.03;2.15;;;;;;;9.64;74.08;94323.38;5009256;28;20018;-69
2021/04/23 08:10:18;;;;;;;3.65;1.80;;;;;;;9.54;74.52;94318.25;5003136;28;20037;-69
2021/04/23 08:12:46;;;;;;;3.13;1.70;;;;;;;9.50;74.30;94314.59;5003987;28;20021;-69
2021/04/23 08:15:13;;;;;;;3.10;1.63;;;;;;;9.55;74.39;94319.84;5009113;28;20128;-69
2021/04/23 08:17:39;;;;;;;4.18;1.45;;;;;;;9.51;74.35;94316.97;5007829;28;20133;-69
2021/04/23 08:20:07;;;;;;;4.88;1.58;;;;;;;9.53;74.57;94322.00;5008930;28;20082;-70
2021/04/23 08:22:32;;;;;;;2.85;1.80;;;;;;;9.49;74.72;94321.81;5008847;28;20041;-69
2021/04/23 08:24:58;;;;;;;4.70;1.50;;;;;;;9.54;74.71;94319.03;5008969;28;20461;-69
2021/04/23 08:27:23;;;;;;;3.50;1.60;;;;;;;9.65;75.52;94311.66;5008911;28;20033;-69
2021/04/23 08:29:49;;;;;;;2.80;1.90;;;;;;;9.68;72.68;94318.25;5008872;28;20034;-69
2021/04/23 08:32:15;;;;;;;3.13;1.70;;;;;;;9.73;73.28;94316.31;5011064;28;20117;-70
2021/04/23 08:34:41;;;;;;;3.47;1.95;;;;;;;9.79;73.54;94320.44;5012806;28;20022;-70
2021/04/23 08:37:07;;;;;;;5.03;1.67;;;;;;;9.90;72.09;94310.38;5012418;28;20018;-70
2021/04/23 08:39:32;;;;;;;2.75;1.70;;;;;;;10.03;71.97;94308.78;5003568;28;20073;-70
2021/04/23 08:41:58;;;;;;;2.10;1.23;;;;;;;10.13;69.51;94318.44;4991758;28;20037;-70
2021/04/23 08:44:23;;;;;;;2.40;1.20;;;;;;;10.19;70.75;94314.56;4998162;28;20030;-70
2021/04/23 08:46:49;;;;;;;2.88;1.33;;;;;;;10.25;70.60;94306.16;4993280;28;20105;-70
2021/04/23 08:49:17;;;;;;;2.00;1.25;;;;;;;10.39;72.41;94302.72;4992893;28;20122;-71
2021/04/23 08:51:44;;;;;;;2.53;1.50;;;;;;;10.49;71.44;94321.16;4991643;28;20022;-70
2021/04/23 08:54:10;;;;;;;5.70;2.08;;;;;;;10.53;71.38;94316.78;4993029;28;20069;-70
2021/04/23 08:56:36;;;;;;;3.95;2.33;;;;;;;10.63;71.40;94316.56;4991224;28;20112;-70
2021/04/23 08:59:01;;;;;;;5.63;1.63;;;;;;;10.75;69.42;94317.91;4998288;28;20056;-70
2021/04/23 09:01:27;;;;;;;8.40;2.55;;;;;;;10.82;71.49;94315.59;5011910;28;20033;-70
2021/04/23 09:03:53;;;;;;;7.90;2.80;;;;;;;10.85;70.17;94312.34;5007096;28;20037;-70
2021/04/23 09:06:23;;;;;;;5.70;2.38;;;;;;;10.75;70.12;94307.25;4991384;28;20034;-70
2021/04/23 09:08:51;;;;;;;4.22;2.20;;;;;;;10.66;70.89;94311.72;4991170;28;20153;-70
2021/04/23 09:11:19;;;;;;;4.63;2.13;;;;;;;10.64;70.41;94317.34;4991044;28;20030;-70
2021/04/23 09:14:05;;;;;;;4.47;2.30;;;;;;;10.55;69.35;94319.94;5001878;28;20481;-70
2021/04/23 09:16:46;;;;;;;3.28;1.60;;;;;;;10.39;69.17;94326.69;4991164;28;20046;-70
2021/04/23 09:19:27;;;;;;;10.45;2.42;;;;;;;10.28;70.58;94320.78;4992421;28;20034;-70
2021/04/23 09:22:01;;;;;;;4.50;2.30;;;;;;;10.18;70.54;94324.44;4992384;28;20034;-69
2021/04/23 09:24:33;;;;;;;4.78;1.75;;;;;;;10.09;69.68;94330.75;4991076;28;20049;-69
2021/04/23 09:27:06;;;;;;;2.85;1.63;;;;;;;9.85;70.54;94323.78;4992256;28;20034;-69
2021/04/23 09:29:34;;;;;;;3.38;1.55;;;;;;;9.83;70.29;94331.25;4990942;28;20038;-70
2021/04/23 09:32:18;;;;;;;4.40;1.80;;;;;;;9.74;70.63;94330.38;5006935;28;20470;-69
2021/04/23 09:34:51;;;;;;;2.78;1.52;;;;;;;9.68;72.18;94327.03;5011717;28;20033;-69
2021/04/23 09:37:18;;;;;;;2.40;1.45;;;;;;;9.62;71.70;94323.66;5011510;28;20482;-70
2021/04/23 09:39:45;;;;;;;4.57;1.88;;;;;;;9.59;72.87;94329.59;5006037;28;20030;-70
2021/04/23 09:42:11;;;;;;;5.00;1.80;;;;;;;9.59;71.91;94326.94;5000258;28;20026;-69
2021/04/23 09:44:50;;;;;;;3.42;1.48;;;;;;;9.57;71.01;94325.66;5009989;28;20375;-69
2021/04/23 09:47:20;;;;;;;7.75;2.05;;;;;;;9.56;72.37;94330.16;5011312;28;20033;-70
2021/04/23 09:49:51;;;;;;;3.13;1.73;;;;;;;9.57;71.00;94334.44;5011241;28;20036;-70
2021/04/23 09:52:17;;;;;;;5.40;1.80;;;;;;;9.60;71.82;94333.03;4994192;28;20105;-70
2021/04/23 09:54:47;;;;;;;9.13;2.03;;;;;;;9.61;71.63;94322.09;4990309;28;20068;-70
2021/04/23 09:57:27;;;;;;;4.20;2.10;;;;;;;9.63;72.74;94335.13;5008887;28;20474;-69
2021/04/23 09:59:55;;;;;;;3.42;1.65;;;;;;;9.67;71.12;94333.44;5009811;28;20065;-69
2021/04/23 10:02:26;;;;;;;3.25;1.48;;;;;;;9.67;70.82;94330.78;5001041;28;20032;-70
2021/04/23 10:04:52;;;;;;;3.05;1.70;;;;;;;9.75;70.87;94323.97;4990374;28;20038;-69
2021/04/23 10:07:22;;;;;;;3.25;2.13;;;;;;;9.86;70.75;94324.56;4991498;28;20374;-70
2021/04/23 10:09:59;;;;;;;3.28;1.83;;;;;;;9.90;72.19;94328.22;4991657;28;20080;-69
2021/04/23 10:12:27;;;;;;;2.00;1.10;;;;;;;9.93;69.50;94325.75;4991319;28;20050;-69
2021/04/23 10:15:00;;;;;;;4.18;1.67;;;;;;;9.96;71.52;94329.69;4989971;28;20118;-69
2021/04/23 10:17:26;;;;;;;3.78;1.90;;;;;;;9.96;71.26;94319.06;4991271;28;20026;-70
2021/04/23 10:19:53;;;;;;;3.60;2.28;;;;;;;9.96;71.15;94324.38;4995534;28;20069;-69
2021/04/23 10:22:19;;;;;;;3.17;1.95;;;;;;;9.95;70.13;94336.09;4996473;28;20034;-69
2021/04/23 10:24:47;;;;;;;6.43;2.15;;;;;;;10.09;69.41;94333.44;4989808;28;20026;-69
2021/04/23 10:27:14;;;;;;;4.50;2.40;;;;;;;10.17;69.03;94330.06;4991434;28;20079;-69
2021/04/23 10:29:43;;;;;;;3.35;1.90;;;;;;;10.19;68.03;94331.34;5006346;28;20390;-69
2021/04/23 10:32:09;;;;;;;5.05;2.40;;;;;;;10.24;68.52;94325.13;5010935;28;20026;-69
2021/04/23 10:34:35;;;;;;;3.08;2.00;;;;;;;10.25;68.69;94335.47;5010257;28;20155;-69
2021/04/23 10:37:02;;;;;;;3.22;1.90;;;;;;;10.30;68.41;94336.47;5009103;28;20507;-69
2021/04/23 10:39:28;;;;;;;4.68;2.15;;;;;;;10.31;67.48;94340.72;5009130;28;20401;-69
2021/04/23 10:41:53;;;;;;;4.45;2.30;;;;;;;10.42;67.02;94337.56;5010448;28;20033;-69
2021/04/23 10:44:21;;;;;;;4.53;2.72;;;;;;;10.51;64.74;94332.28;5010605;28;20036;-68
2021/04/23 10:46:50;;;;;;;3.67;2.60;;;;;;;10.60;63.53;94321.69;4997263;28;20026;-69
2021/04/23 10:49:16;;;;;;;3.88;2.45;;;;;;;10.77;63.90;94326.41;4989247;28;20038;-69
2021/04/23 10:51:43;;;;;;;5.88;3.00;;;;;;;10.74;62.95;94322.44;4989366;28;20022;-70
2021/04/23 10:54:16;;;;;;;4.75;3.05;;;;;;;10.89;62.50;94323.16;4990391;28;20030;-70
2021/04/23 10:56:53;;;;;;;4.63;2.72;;;;;;;10.95;63.30;94332.63;4989572;28;20042;-69
2021/04/23 10:59:26;;;;;;;3.47;2.10;;;;;;;11.07;63.24;94324.06;5008940;28;20121;-70
2021/04/23 11:01:52;;;;;;;7.38;2.42;;;;;;;11.06;64.21;94323.28;5008654;28;20152;-70
2021/04/23 11:04:21;;;;;;;4.60;2.25;;;;;;;11.15;61.79;94326.00;5008704;28;20065;-70
2021/04/23 11:06:53;;;;;;;2.95;1.73;;;;;;;11.10;60.85;94328.81;5010180;28;20064;-69
2021/04/23 11:09:25;;;;;;;;;;;;;;;11.11;60.80;94322.38;4992932;28;20410;-70
2021/04/23 11:12:06;;;;;;;3.33;1.50;;;;;;;10.82;60.75;94320.94;5005583;28;19914;-69
2021/04/23 11:14:32;;;;;;;2.03;1.38;;;;;;;10.77;61.89;94315.72;5003983;28;20094;-70
2021/04/23 11:17:16;;;;;;;2.45;1.60;;;;;;;10.70;61.10;94318.00;4990417;28;20475;-70
2021/04/23 11:19:43;;;;;;;2.50;1.52;;;;;;;10.65;61.96;94316.25;4993515;28;20037;-69
2021/04/23 11:22:12;;;;;;;2.40;1.35;;;;;;;10.71;63.40;94307.06;4990361;28;20445;-68
2021/04/23 11:24:38;;;;;;;5.47;1.70;;;;;;;10.90;63.74;94304.19;4990313;28;20033;-69
2021/04/23 11:27:07;;;;;;;3.63;1.90;;;;;;;11.08;63.81;94310.44;4990169;28;20041;-70
2021/04/23 11:29:34;;;;;;;2.22;1.38;;;;;;;11.28;61.94;94306.47;4988880;28;20022;-69
2021/04/23 11:32:16;;;;;;;2.65;1.60;;;;;;;11.44;60.72;94296.97;4989906;28;20034;-69